sensor_id;sensor_type;location;lat;lon;timestamp;pressure;altitude;pressure_sealevel;temperature;humidity
27958;BME280;15295;42.658;23.374;2023-03-31T00:01:17;94530.91;;;14.90;35.77
27958;BME280;15295;42.658;23.374;2023-03-31T00:03:43;94556.28;;;14.98;35.87
27958;BME280;15295;42.658;23.374;2023-03-31T00:06:11;94553.53;;;14.98;35.87
27958;BME280;15295;42.658;23.374;2023-03-31T00:08:44;94556.72;;;14.96;36.38
27958;BME280;15295;42.658;23.374;2023-03-31T00:11:14;94558.44;;;14.90;36.13
27958;BME280;15295;42.658;23.374;2023-03-31T00:13:39;94541.22;;;14.86;35.86
27958;BME280;15295;42.658;23.374;2023-03-31T00:16:08;94550.19;;;14.90;35.53
27958;BME280;15295;42.658;23.374;2023-03-31T00:18:35;94552.56;;;14.88;35.88
27958;BME280;15295;42.658;23.374;2023-03-31T00:21:15;94549.41;;;14.90;35.63
27958;BME280;15295;42.658;23.374;2023-03-31T00:23:50;94546.28;;;14.88;35.61
27958;BME280;15295;42.658;23.374;2023-03-31T00:26:17;94545.50;;;14.87;35.84
27958;BME280;15295;42.658;23.374;2023-03-31T00:28:42;94545.25;;;14.82;36.06
27958;BME280;15295;42.658;23.374;2023-03-31T00:31:07;94544.81;;;14.83;36.20
27958;BME280;15295;42.658;23.374;2023-03-31T00:33:33;94542.91;;;14.80;35.92
27958;BME280;15295;42.658;23.374;2023-03-31T00:35:58;94531.41;;;14.65;36.16
27958;BME280;15295;42.658;23.374;2023-03-31T00:38:30;94536.34;;;14.74;35.98
27958;BME280;15295;42.658;23.374;2023-03-31T00:40:58;94530.50;;;14.72;35.82
27958;BME280;15295;42.658;23.374;2023-03-31T00:43:33;94540.66;;;14.75;35.78
27958;BME280;15295;42.658;23.374;2023-03-31T00:48:31;94526.97;;;14.72;35.98
27958;BME280;15295;42.658;23.374;2023-03-31T00:50:59;94523.94;;;14.66;36.30
27958;BME280;15295;42.658;23.374;2023-03-31T00:53:28;94528.06;;;14.58;36.17
27958;BME280;15295;42.658;23.374;2023-03-31T00:56:10;94522.91;;;14.60;36.30
27958;BME280;15295;42.658;23.374;2023-03-31T00:58:37;94517.88;;;14.55;36.08
27958;BME280;15295;42.658;23.374;2023-03-31T01:01:11;94520.19;;;14.56;36.03
27958;BME280;15295;42.658;23.374;2023-03-31T01:03:39;94508.66;;;14.45;36.23
27958;BME280;15295;42.658;23.374;2023-03-31T01:06:16;94505.41;;;14.50;36.24
27958;BME280;15295;42.658;23.374;2023-03-31T01:08:45;94514.31;;;14.58;36.26
27958;BME280;15295;42.658;23.374;2023-03-31T01:11:13;94506.53;;;14.53;36.11
27958;BME280;15295;42.658;23.374;2023-03-31T01:13:41;94501.81;;;14.53;36.02
27958;BME280;15295;42.658;23.374;2023-03-31T01:16:09;94503.31;;;14.58;35.94
27958;BME280;15295;42.658;23.374;2023-03-31T01:18:35;94508.63;;;14.65;36.18
27958;BME280;15295;42.658;23.374;2023-03-31T01:21:53;94513.28;;;14.68;35.80
27958;BME280;15295;42.658;23.374;2023-03-31T01:30:28;94509.97;;;14.77;36.09
27958;BME280;15295;42.658;23.374;2023-03-31T01:46:31;94532.16;;;15.05;36.90
27958;BME280;15295;42.658;23.374;2023-03-31T01:49:23;94536.59;;;14.99;36.60
27958;BME280;15295;42.658;23.374;2023-03-31T01:54:45;94547.25;;;14.97;36.72
27958;BME280;15295;42.658;23.374;2023-03-31T02:00:24;94547.25;;;14.97;36.85
27958;BME280;15295;42.658;23.374;2023-03-31T02:03:02;94541.84;;;14.94;36.60
27958;BME280;15295;42.658;23.374;2023-03-31T02:05:34;94541.34;;;14.99;36.48
27958;BME280;15295;42.658;23.374;2023-03-31T02:08:16;94546.41;;;15.00;36.74
27958;BME280;15295;42.658;23.374;2023-03-31T02:10:46;94544.34;;;15.04;36.73
27958;BME280;15295;42.658;23.374;2023-03-31T02:13:12;94546.31;;;15.04;36.71
27958;BME280;15295;42.658;23.374;2023-03-31T02:15:42;94535.31;;;15.04;36.89
27958;BME280;15295;42.658;23.374;2023-03-31T02:18:15;94542.31;;;15.08;36.83
27958;BME280;15295;42.658;23.374;2023-03-31T02:20:45;94567.00;;;15.12;37.08
27958;BME280;15295;42.658;23.374;2023-03-31T02:23:13;94563.72;;;15.01;37.30
27958;BME280;15295;42.658;23.374;2023-03-31T02:25:53;94569.00;;;14.72;39.24
27958;BME280;15295;42.658;23.374;2023-03-31T02:28:27;94587.00;;;14.77;38.51
27958;BME280;15295;42.658;23.374;2023-03-31T02:33:24;94577.03;;;14.63;40.31
27958;BME280;15295;42.658;23.374;2023-03-31T02:35:49;94582.97;;;14.61;41.04
27958;BME280;15295;42.658;23.374;2023-03-31T02:38:16;94585.44;;;14.56;40.85
27958;BME280;15295;42.658;23.374;2023-03-31T02:40:42;94581.25;;;14.48;41.12
27958;BME280;15295;42.658;23.374;2023-03-31T02:43:07;94585.81;;;14.58;41.45
27958;BME280;15295;42.658;23.374;2023-03-31T02:45:42;94594.88;;;14.55;41.90
27958;BME280;15295;42.658;23.374;2023-03-31T02:48:33;94596.03;;;14.57;42.07
27958;BME280;15295;42.658;23.374;2023-03-31T03:00:29;94567.59;;;14.64;44.42
27958;BME280;15295;42.658;23.374;2023-03-31T03:16:40;94538.31;;;14.93;43.66
27958;BME280;15295;42.658;23.374;2023-03-31T03:19:32;94535.75;;;15.02;43.81
27958;BME280;15295;42.658;23.374;2023-03-31T03:21:58;94513.47;;;14.97;43.87
27958;BME280;15295;42.658;23.374;2023-03-31T03:24:23;94517.19;;;15.06;44.32
27958;BME280;15295;42.658;23.374;2023-03-31T03:26:53;94528.03;;;15.13;43.92
27958;BME280;15295;42.658;23.374;2023-03-31T03:29:19;94519.19;;;15.22;43.46
27958;BME280;15295;42.658;23.374;2023-03-31T03:31:46;94521.84;;;15.25;43.70
27958;BME280;15295;42.658;23.374;2023-03-31T03:34:12;94519.72;;;15.33;43.34
27958;BME280;15295;42.658;23.374;2023-03-31T03:36:38;94515.69;;;15.37;42.77
27958;BME280;15295;42.658;23.374;2023-03-31T03:39:10;94513.44;;;15.32;42.54
27958;BME280;15295;42.658;23.374;2023-03-31T03:41:36;94513.59;;;15.25;43.05
27958;BME280;15295;42.658;23.374;2023-03-31T03:44:02;94522.66;;;15.26;42.87
27958;BME280;15295;42.658;23.374;2023-03-31T03:46:27;94518.41;;;15.21;43.27
27958;BME280;15295;42.658;23.374;2023-03-31T03:48:53;94511.00;;;15.02;44.19
27958;BME280;15295;42.658;23.374;2023-03-31T03:51:18;94513.31;;;15.04;44.09
27958;BME280;15295;42.658;23.374;2023-03-31T03:53:44;94517.84;;;14.94;43.44
27958;BME280;15295;42.658;23.374;2023-03-31T03:56:09;94514.13;;;14.85;43.28
27958;BME280;15295;42.658;23.374;2023-03-31T03:58:36;94513.63;;;14.90;43.61
27958;BME280;15295;42.658;23.374;2023-03-31T04:01:01;94517.50;;;14.92;43.54
27958;BME280;15295;42.658;23.374;2023-03-31T04:03:27;94516.88;;;14.85;44.31
27958;BME280;15295;42.658;23.374;2023-03-31T04:05:52;94511.31;;;14.88;43.70
27958;BME280;15295;42.658;23.374;2023-03-31T04:08:18;94521.53;;;14.88;43.60
27958;BME280;15295;42.658;23.374;2023-03-31T04:10:48;94528.63;;;15.05;44.65
27958;BME280;15295;42.658;23.374;2023-03-31T04:13:18;94507.09;;;15.00;44.13
27958;BME280;15295;42.658;23.374;2023-03-31T04:15:44;94522.53;;;15.13;43.79
27958;BME280;15295;42.658;23.374;2023-03-31T04:18:10;94523.31;;;15.14;43.26
27958;BME280;15295;42.658;23.374;2023-03-31T04:20:50;94531.00;;;15.22;43.48
27958;BME280;15295;42.658;23.374;2023-03-31T04:23:29;94527.47;;;15.22;43.03
27958;BME280;15295;42.658;23.374;2023-03-31T04:25:58;94521.59;;;15.20;43.22
27958;BME280;15295;42.658;23.374;2023-03-31T04:28:26;94522.09;;;15.15;43.40
27958;BME280;15295;42.658;23.374;2023-03-31T04:30:59;94509.81;;;15.19;43.20
27958;BME280;15295;42.658;23.374;2023-03-31T04:33:25;94508.25;;;15.18;43.04
27958;BME280;15295;42.658;23.374;2023-03-31T04:35:50;94522.56;;;15.29;43.18
27958;BME280;15295;42.658;23.374;2023-03-31T04:38:27;94526.00;;;15.33;43.49
27958;BME280;15295;42.658;23.374;2023-03-31T04:41:07;94523.53;;;15.39;42.93
27958;BME280;15295;42.658;23.374;2023-03-31T04:43:32;94514.81;;;15.40;43.12
27958;BME280;15295;42.658;23.374;2023-03-31T04:45:58;94512.84;;;15.41;43.17
27958;BME280;15295;42.658;23.374;2023-03-31T04:48:23;94506.38;;;15.31;43.42
27958;BME280;15295;42.658;23.374;2023-03-31T04:50:49;94505.38;;;15.41;43.49
27958;BME280;15295;42.658;23.374;2023-03-31T04:53:14;94514.00;;;15.43;43.43
27958;BME280;15295;42.658;23.374;2023-03-31T04:55:40;94519.06;;;15.45;43.43
27958;BME280;15295;42.658;23.374;2023-03-31T04:58:05;94517.78;;;15.50;42.92
27958;BME280;15295;42.658;23.374;2023-03-31T05:00:36;94490.75;;;15.44;43.06
27958;BME280;15295;42.658;23.374;2023-03-31T05:03:01;94503.94;;;15.53;43.38
27958;BME280;15295;42.658;23.374;2023-03-31T05:05:27;94488.50;;;15.39;43.35
27958;BME280;15295;42.658;23.374;2023-03-31T05:07:52;94497.81;;;15.46;43.62
27958;BME280;15295;42.658;23.374;2023-03-31T05:10:19;94507.47;;;15.54;44.02
27958;BME280;15295;42.658;23.374;2023-03-31T05:12:44;94489.91;;;15.48;43.72
27958;BME280;15295;42.658;23.374;2023-03-31T05:15:10;94496.69;;;15.43;43.55
27958;BME280;15295;42.658;23.374;2023-03-31T05:17:36;94495.09;;;15.42;43.56
27958;BME280;15295;42.658;23.374;2023-03-31T05:20:18;94482.56;;;15.41;43.55
27958;BME280;15295;42.658;23.374;2023-03-31T05:22:45;94485.69;;;15.43;43.82
27958;BME280;15295;42.658;23.374;2023-03-31T05:25:12;94476.22;;;15.44;43.32
27958;BME280;15295;42.658;23.374;2023-03-31T05:27:44;94474.63;;;15.27;42.83
27958;BME280;15295;42.658;23.374;2023-03-31T05:30:12;94479.19;;;15.33;43.33
27958;BME280;15295;42.658;23.374;2023-03-31T05:32:38;94477.84;;;15.41;43.58
27958;BME280;15295;42.658;23.374;2023-03-31T05:35:04;94478.34;;;15.36;43.45
27958;BME280;15295;42.658;23.374;2023-03-31T05:37:29;94478.34;;;15.36;43.37
27958;BME280;15295;42.658;23.374;2023-03-31T05:39:55;94479.19;;;15.33;43.61
27958;BME280;15295;42.658;23.374;2023-03-31T05:42:21;94478.69;;;15.38;43.77
27958;BME280;15295;42.658;23.374;2023-03-31T05:44:46;94470.28;;;15.46;43.93
27958;BME280;15295;42.658;23.374;2023-03-31T05:47:28;94469.84;;;15.47;43.95
27958;BME280;15295;42.658;23.374;2023-03-31T05:50:04;94463.56;;;15.47;43.81
27958;BME280;15295;42.658;23.374;2023-03-31T05:52:32;94472.31;;;15.41;44.10
27958;BME280;15295;42.658;23.374;2023-03-31T05:54:57;94476.81;;;15.52;44.13
27958;BME280;15295;42.658;23.374;2023-03-31T05:57:22;94480.25;;;15.56;44.13
27958;BME280;15295;42.658;23.374;2023-03-31T05:59:52;94482.75;;;15.66;43.91
27958;BME280;15295;42.658;23.374;2023-03-31T06:02:17;94476.81;;;15.68;44.01
27958;BME280;15295;42.658;23.374;2023-03-31T06:04:43;94477.66;;;15.81;44.09
27958;BME280;15295;42.658;23.374;2023-03-31T06:07:08;94469.72;;;15.83;44.22
27958;BME280;15295;42.658;23.374;2023-03-31T06:09:34;94487.78;;;16.00;43.52
27958;BME280;15295;42.658;23.374;2023-03-31T06:11:59;94489.50;;;16.10;43.33
27958;BME280;15295;42.658;23.374;2023-03-31T06:14:26;94483.28;;;16.06;43.01
27958;BME280;15295;42.658;23.374;2023-03-31T06:16:51;94481.13;;;15.97;43.19
27958;BME280;15295;42.658;23.374;2023-03-31T06:19:17;94479.78;;;16.05;42.88
27958;BME280;15295;42.658;23.374;2023-03-31T06:21:44;94481.75;;;16.05;42.79
27958;BME280;15295;42.658;23.374;2023-03-31T06:24:10;94454.56;;;15.91;42.94
27958;BME280;15295;42.658;23.374;2023-03-31T06:26:35;94474.59;;;16.07;43.24
27958;BME280;15295;42.658;23.374;2023-03-31T06:29:01;94443.06;;;15.80;43.28
27958;BME280;15295;42.658;23.374;2023-03-31T06:31:33;94485.69;;;16.04;43.23
27958;BME280;15295;42.658;23.374;2023-03-31T06:33:58;94477.28;;;15.95;43.12
27958;BME280;15295;42.658;23.374;2023-03-31T06:36:23;94484.16;;;16.03;42.88
27958;BME280;15295;42.658;23.374;2023-03-31T06:38:49;94489.50;;;16.10;43.37
27958;BME280;15295;42.658;23.374;2023-03-31T06:41:21;94464.88;;;16.03;43.51
27958;BME280;15295;42.658;23.374;2023-03-31T06:43:47;94487.03;;;16.28;43.70
27958;BME280;15295;42.658;23.374;2023-03-31T06:46:12;94476.25;;;16.34;43.16
27958;BME280;15295;42.658;23.374;2023-03-31T06:48:38;94489.94;;;16.37;43.14
27958;BME280;15295;42.658;23.374;2023-03-31T06:51:06;94489.28;;;16.46;43.18
27958;BME280;15295;42.658;23.374;2023-03-31T06:53:32;94496.97;;;16.54;42.88
27958;BME280;15295;42.658;23.374;2023-03-31T06:55:58;94500.06;;;16.56;42.75
27958;BME280;15295;42.658;23.374;2023-03-31T06:58:24;94489.53;;;16.51;42.54
27958;BME280;15295;42.658;23.374;2023-03-31T07:01:02;94458.69;;;16.40;42.76
27958;BME280;15295;42.658;23.374;2023-03-31T07:03:28;94459.72;;;16.46;42.44
27958;BME280;15295;42.658;23.374;2023-03-31T07:05:54;94487.53;;;16.80;42.53
27958;BME280;15295;42.658;23.374;2023-03-31T07:08:21;94477.63;;;16.95;42.22
27958;BME280;15295;42.658;23.374;2023-03-31T07:10:48;94473.22;;;17.11;41.88
27958;BME280;15295;42.658;23.374;2023-03-31T07:13:15;94436.22;;;17.08;41.83
27958;BME280;15295;42.658;23.374;2023-03-31T07:15:41;94447.69;;;17.32;41.53
27958;BME280;15295;42.658;23.374;2023-03-31T07:18:07;94438.63;;;17.56;41.70
27958;BME280;15295;42.658;23.374;2023-03-31T07:20:37;94439.88;;;17.77;40.72
27958;BME280;15295;42.658;23.374;2023-03-31T07:23:04;94436.00;;;17.87;40.06
27958;BME280;15295;42.658;23.374;2023-03-31T07:25:31;94425.16;;;18.14;39.47
27958;BME280;15295;42.658;23.374;2023-03-31T07:27:57;94413.41;;;18.23;39.23
27958;BME280;15295;42.658;23.374;2023-03-31T07:30:22;94408.25;;;18.34;38.63
27958;BME280;15295;42.658;23.374;2023-03-31T07:32:51;94412.72;;;18.53;38.52
27958;BME280;15295;42.658;23.374;2023-03-31T07:35:17;94426.19;;;18.94;37.75
27958;BME280;15295;42.658;23.374;2023-03-31T07:37:47;94436.75;;;19.17;36.76
27958;BME280;15295;42.658;23.374;2023-03-31T07:40:18;94397.44;;;19.10;36.58
27958;BME280;15295;42.658;23.374;2023-03-31T07:42:46;94420.81;;;19.40;36.73
27958;BME280;15295;42.658;23.374;2023-03-31T07:45:14;94424.13;;;19.56;35.92
27958;BME280;15295;42.658;23.374;2023-03-31T07:47:43;94408.44;;;19.71;36.23
27958;BME280;15295;42.658;23.374;2023-03-31T07:50:16;94403.06;;;19.95;35.98
27958;BME280;15295;42.658;23.374;2023-03-31T07:52:52;94400.59;;;20.15;34.78
27958;BME280;15295;42.658;23.374;2023-03-31T07:55:20;94400.59;;;20.51;34.51
27958;BME280;15295;42.658;23.374;2023-03-31T07:57:50;94411.13;;;20.98;33.23
27958;BME280;15295;42.658;23.374;2023-03-31T08:00:17;94411.38;;;21.27;31.62
27958;BME280;15295;42.658;23.374;2023-03-31T08:02:43;94407.25;;;21.46;30.51
27958;BME280;15295;42.658;23.374;2023-03-31T08:05:10;94402.06;;;21.30;30.53
27958;BME280;15295;42.658;23.374;2023-03-31T08:07:38;94394.59;;;21.45;30.45
27958;BME280;15295;42.658;23.374;2023-03-31T08:10:07;94389.63;;;21.49;30.14
27958;BME280;15295;42.658;23.374;2023-03-31T08:12:36;94383.66;;;21.66;29.54
27958;BME280;15295;42.658;23.374;2023-03-31T08:15:02;94380.75;;;22.07;29.77
27958;BME280;15295;42.658;23.374;2023-03-31T08:17:28;94397.91;;;22.44;29.05
27958;BME280;15295;42.658;23.374;2023-03-31T08:19:53;94379.84;;;22.40;28.61
27958;BME280;15295;42.658;23.374;2023-03-31T08:22:20;94388.25;;;22.16;28.63
27958;BME280;15295;42.658;23.374;2023-03-31T08:24:47;94389.06;;;21.93;28.72
27958;BME280;15295;42.658;23.374;2023-03-31T08:27:16;94368.34;;;21.70;28.43
27958;BME280;15295;42.658;23.374;2023-03-31T08:29:41;94347.28;;;21.55;29.12
27958;BME280;15295;42.658;23.374;2023-03-31T08:32:07;94336.84;;;21.64;29.19
27958;BME280;15295;42.658;23.374;2023-03-31T08:34:33;94388.13;;;21.96;28.97
27958;BME280;15295;42.658;23.374;2023-03-31T08:36:58;94379.69;;;21.81;28.82
27958;BME280;15295;42.658;23.374;2023-03-31T08:39:24;94377.81;;;21.64;28.85
27958;BME280;15295;42.658;23.374;2023-03-31T08:42:02;94378.56;;;21.40;28.66
27958;BME280;15295;42.658;23.374;2023-03-31T08:44:51;94392.84;;;21.24;28.97
27958;BME280;15295;42.658;23.374;2023-03-31T08:47:23;94373.59;;;21.12;29.34
27958;BME280;15295;42.658;23.374;2023-03-31T08:49:55;94397.34;;;21.13;28.68
27958;BME280;15295;42.658;23.374;2023-03-31T08:52:28;94379.97;;;20.94;29.18
27958;BME280;15295;42.658;23.374;2023-03-31T08:54:58;94374.41;;;21.03;29.57
27958;BME280;15295;42.658;23.374;2023-03-31T08:57:39;94379.63;;;21.10;28.97
27958;BME280;15295;42.658;23.374;2023-03-31T09:00:16;94362.38;;;20.97;29.18
27958;BME280;15295;42.658;23.374;2023-03-31T09:03:01;94365.19;;;20.88;29.64
27958;BME280;15295;42.658;23.374;2023-03-31T09:05:44;94365.19;;;20.79;29.73
27958;BME280;15295;42.658;23.374;2023-03-31T09:08:36;94359.78;;;20.85;29.65
27958;BME280;15295;42.658;23.374;2023-03-31T09:11:34;94321.63;;;20.52;29.51
27958;BME280;15295;42.658;23.374;2023-03-31T09:14:17;94352.25;;;20.76;29.29
27958;BME280;15295;42.658;23.374;2023-03-31T09:17:19;94316.28;;;20.40;29.22
27958;BME280;15295;42.658;23.374;2023-03-31T09:19:51;94361.59;;;20.55;29.54
27958;BME280;15295;42.658;23.374;2023-03-31T09:22:29;94347.06;;;20.51;29.51
27958;BME280;15295;42.658;23.374;2023-03-31T09:25:37;94345.38;;;20.53;29.36
27958;BME280;15295;42.658;23.374;2023-03-31T09:27:44;94352.59;;;20.60;29.78
27958;BME280;15295;42.658;23.374;2023-03-31T09:30:25;94338.91;;;20.56;29.08
27958;BME280;15295;42.658;23.374;2023-03-31T09:35:37;94347.22;;;21.07;29.00
27958;BME280;15295;42.658;23.374;2023-03-31T09:38:02;94361.94;;;21.31;28.39
27958;BME280;15295;42.658;23.374;2023-03-31T09:40:28;94354.19;;;21.59;28.53
27958;BME280;15295;42.658;23.374;2023-03-31T09:43:02;94338.97;;;21.93;27.96
27958;BME280;15295;42.658;23.374;2023-03-31T09:45:29;94339.44;;;22.15;27.47
27958;BME280;15295;42.658;23.374;2023-03-31T09:48:14;94332.31;;;22.28;27.36
27958;BME280;15295;42.658;23.374;2023-03-31T09:50:52;94329.25;;;22.41;27.02
27958;BME280;15295;42.658;23.374;2023-03-31T09:56:54;94321.06;;;23.11;26.58
27958;BME280;15295;42.658;23.374;2023-03-31T09:59:34;94333.94;;;23.08;26.30
27958;BME280;15295;42.658;23.374;2023-03-31T10:02:46;94333.16;;;23.37;25.94
27958;BME280;15295;42.658;23.374;2023-03-31T10:05:34;94319.72;;;23.55;25.62
27958;BME280;15295;42.658;23.374;2023-03-31T10:08:30;94315.72;;;23.62;25.42
27958;BME280;15295;42.658;23.374;2023-03-31T10:11:08;94310.84;;;23.77;25.78
27958;BME280;15295;42.658;23.374;2023-03-31T10:16:06;94276.75;;;23.47;25.05
27958;BME280;15295;42.658;23.374;2023-03-31T10:18:39;94309.19;;;24.05;25.04
27958;BME280;15295;42.658;23.374;2023-03-31T10:21:13;94303.59;;;24.05;24.83
27958;BME280;15295;42.658;23.374;2023-03-31T10:23:50;94277.63;;;23.99;24.78
27958;BME280;15295;42.658;23.374;2023-03-31T10:26:26;94295.78;;;24.35;24.46
27958;BME280;15295;42.658;23.374;2023-03-31T10:28:53;94288.78;;;24.19;24.95
27958;BME280;15295;42.658;23.374;2023-03-31T10:31:25;94289.88;;;24.27;24.82
27958;BME280;15295;42.658;23.374;2023-03-31T10:33:51;94260.81;;;24.14;24.82
27958;BME280;15295;42.658;23.374;2023-03-31T10:36:21;94291.41;;;24.54;24.56
27958;BME280;15295;42.658;23.374;2023-03-31T10:38:50;94251.38;;;24.37;24.57
27958;BME280;15295;42.658;23.374;2023-03-31T10:41:24;94283.31;;;24.62;24.25
27958;BME280;15295;42.658;23.374;2023-03-31T10:46:52;94277.75;;;24.10;24.78
27958;BME280;15295;42.658;23.374;2023-03-31T10:51:57;94247.06;;;23.90;25.14
27958;BME280;15295;42.658;23.374;2023-03-31T10:54:34;94265.16;;;23.95;24.78
27958;BME280;15295;42.658;23.374;2023-03-31T10:57:07;94263.19;;;23.81;25.23
27958;BME280;15295;42.658;23.374;2023-03-31T10:59:57;94259.66;;;23.80;25.03
27958;BME280;15295;42.658;23.374;2023-03-31T11:02:57;94262.38;;;23.74;25.08
27958;BME280;15295;42.658;23.374;2023-03-31T11:08:43;94263.38;;;23.71;25.85
27958;BME280;15295;42.658;23.374;2023-03-31T11:11:24;94255.41;;;23.64;25.26
27958;BME280;15295;42.658;23.374;2023-03-31T11:14:32;94249.47;;;23.57;25.53
27958;BME280;15295;42.658;23.374;2023-03-31T11:18:15;94244.75;;;23.63;25.99
27958;BME280;15295;42.658;23.374;2023-03-31T11:20:23;94244.16;;;23.59;26.01
27958;BME280;15295;42.658;23.374;2023-03-31T11:29:05;94235.94;;;23.70;25.64
27958;BME280;15295;42.658;23.374;2023-03-31T11:37:23;94212.38;;;23.71;25.38
27958;BME280;15295;42.658;23.374;2023-03-31T11:40:35;94186.97;;;23.43;25.47
27958;BME280;15295;42.658;23.374;2023-03-31T11:43:26;94211.16;;;23.52;25.93
27958;BME280;15295;42.658;23.374;2023-03-31T11:46:24;94210.56;;;23.28;26.01
27958;BME280;15295;42.658;23.374;2023-03-31T11:49:29;94205.25;;;23.30;26.56
27958;BME280;15295;42.658;23.374;2023-03-31T11:55:21;94204.09;;;23.36;26.23
27958;BME280;15295;42.658;23.374;2023-03-31T11:58:22;94204.44;;;23.44;26.42
27958;BME280;15295;42.658;23.374;2023-03-31T12:00:56;94185.97;;;23.46;26.21
27958;BME280;15295;42.658;23.374;2023-03-31T12:03:55;94187.38;;;23.56;26.17
27958;BME280;15295;42.658;23.374;2023-03-31T12:06:32;94179.69;;;23.51;26.17
27958;BME280;15295;42.658;23.374;2023-03-31T12:12:21;94177.34;;;23.70;25.95
27958;BME280;15295;42.658;23.374;2023-03-31T12:17:59;94167.28;;;24.04;25.84
27958;BME280;15295;42.658;23.374;2023-03-31T12:20:33;94161.19;;;24.31;25.81
27958;BME280;15295;42.658;23.374;2023-03-31T12:23:04;94156.19;;;24.40;25.14
27958;BME280;15295;42.658;23.374;2023-03-31T12:25:51;94153.81;;;24.65;24.81
27958;BME280;15295;42.658;23.374;2023-03-31T12:28:21;94154.44;;;24.43;24.95
27958;BME280;15295;42.658;23.374;2023-03-31T12:30:47;94155.13;;;24.32;25.33
27958;BME280;15295;42.658;23.374;2023-03-31T12:47:40;94116.34;;;24.40;25.10
27958;BME280;15295;42.658;23.374;2023-03-31T12:56:09;94112.38;;;25.00;24.61
27958;BME280;15295;42.658;23.374;2023-03-31T12:58:42;94115.22;;;25.11;24.56
27958;BME280;15295;42.658;23.374;2023-03-31T13:03:40;94111.84;;;25.55;23.80
27958;BME280;15295;42.658;23.374;2023-03-31T13:09:08;94090.00;;;25.86;23.61
27958;BME280;15295;42.658;23.374;2023-03-31T13:11:51;94081.84;;;25.94;23.31
27958;BME280;15295;42.658;23.374;2023-03-31T13:14:21;94080.59;;;26.12;23.47
27958;BME280;15295;42.658;23.374;2023-03-31T13:19:39;94061.53;;;26.10;23.33
27958;BME280;15295;42.658;23.374;2023-03-31T13:22:05;94068.38;;;26.20;22.97
27958;BME280;15295;42.658;23.374;2023-03-31T13:24:32;94030.72;;;26.10;23.34
27958;BME280;15295;42.658;23.374;2023-03-31T13:27:26;94039.88;;;26.22;23.19
27958;BME280;15295;42.658;23.374;2023-03-31T13:29:57;94014.16;;;26.12;23.29
27958;BME280;15295;42.658;23.374;2023-03-31T13:32:24;94015.94;;;26.10;23.00
27958;BME280;15295;42.658;23.374;2023-03-31T13:35:12;94010.81;;;26.02;23.25
27958;BME280;15295;42.658;23.374;2023-03-31T13:51:40;93992.75;;;26.31;23.35
27958;BME280;15295;42.658;23.374;2023-03-31T14:00:06;93986.91;;;25.90;23.46
27958;BME280;15295;42.658;23.374;2023-03-31T14:05:36;93977.78;;;25.73;23.71
27958;BME280;15295;42.658;23.374;2023-03-31T14:08:18;93939.88;;;25.56;23.59
27958;BME280;15295;42.658;23.374;2023-03-31T14:10:44;93947.00;;;25.46;23.67
27958;BME280;15295;42.658;23.374;2023-03-31T14:13:15;93973.47;;;25.61;23.44
27958;BME280;15295;42.658;23.374;2023-03-31T14:15:52;93965.06;;;25.67;23.59
27958;BME280;15295;42.658;23.374;2023-03-31T14:18:37;93967.84;;;25.83;23.74
27958;BME280;15295;42.658;23.374;2023-03-31T14:21:30;93962.25;;;25.89;23.60
27958;BME280;15295;42.658;23.374;2023-03-31T14:29:22;93959.94;;;25.98;23.41
27958;BME280;15295;42.658;23.374;2023-03-31T14:32:21;93958.94;;;25.85;23.54
27958;BME280;15295;42.658;23.374;2023-03-31T14:35:50;93951.59;;;25.65;23.85
27958;BME280;15295;42.658;23.374;2023-03-31T14:37:48;93947.78;;;25.57;23.86
27958;BME280;15295;42.658;23.374;2023-03-31T14:40:15;93908.84;;;25.37;23.97
27958;BME280;15295;42.658;23.374;2023-03-31T14:42:42;93946.50;;;25.42;24.21
27958;BME280;15295;42.658;23.374;2023-03-31T14:45:20;93943.16;;;25.38;23.94
27958;BME280;15295;42.658;23.374;2023-03-31T14:48:10;93941.41;;;25.40;23.79
27958;BME280;15295;42.658;23.374;2023-03-31T14:50:43;93924.09;;;25.25;23.78
27958;BME280;15295;42.658;23.374;2023-03-31T14:53:16;93924.88;;;25.25;24.01
27958;BME280;15295;42.658;23.374;2023-03-31T14:55:42;93926.38;;;25.32;24.11
27958;BME280;15295;42.658;23.374;2023-03-31T14:58:26;93923.31;;;25.41;23.80
27958;BME280;15295;42.658;23.374;2023-03-31T15:00:54;93896.38;;;25.16;24.09
27958;BME280;15295;42.658;23.374;2023-03-31T15:03:19;93924.34;;;25.27;24.22
27958;BME280;15295;42.658;23.374;2023-03-31T15:05:45;93906.31;;;25.17;24.40
27958;BME280;15295;42.658;23.374;2023-03-31T15:08:13;93922.81;;;25.20;24.05
27958;BME280;15295;42.658;23.374;2023-03-31T15:10:48;93908.81;;;25.09;24.14
27958;BME280;15295;42.658;23.374;2023-03-31T15:15:57;93914.13;;;24.85;24.67
27958;BME280;15295;42.658;23.374;2023-03-31T15:18:30;93912.84;;;24.81;24.95
27958;BME280;15295;42.658;23.374;2023-03-31T15:20:55;93916.66;;;24.78;24.99
27958;BME280;15295;42.658;23.374;2023-03-31T15:23:23;93910.28;;;24.72;24.99
27958;BME280;15295;42.658;23.374;2023-03-31T15:25:58;93916.84;;;24.69;25.27
27958;BME280;15295;42.658;23.374;2023-03-31T15:28:30;93909.72;;;24.62;25.16
27958;BME280;15295;42.658;23.374;2023-03-31T15:30:58;93909.50;;;24.66;25.29
27958;BME280;15295;42.658;23.374;2023-03-31T15:33:30;93911.75;;;24.56;25.24
27958;BME280;15295;42.658;23.374;2023-03-31T15:35:57;93911.69;;;24.39;25.37
27958;BME280;15295;42.658;23.374;2023-03-31T15:38:26;93925.91;;;24.41;25.68
27958;BME280;15295;42.658;23.374;2023-03-31T15:40:54;93914.97;;;24.32;25.53
27958;BME280;15295;42.658;23.374;2023-03-31T15:43:29;93903.47;;;24.19;25.92
27958;BME280;15295;42.658;23.374;2023-03-31T15:45:59;93891.53;;;24.08;25.89
27958;BME280;15295;42.658;23.374;2023-03-31T15:48:29;93913.00;;;23.96;25.98